createdAt,value
2023-03-07T00:00:54.008Z,3.40
2023-03-07T00:03:20.994Z,2.40
2023-03-07T00:05:47.336Z,2.50
2023-03-07T00:08:13.668Z,2.27
2023-03-07T00:10:40.037Z,1.40
2023-03-07T00:13:06.345Z,1.90
2023-03-07T00:15:32.757Z,1.57
2023-03-07T00:17:59.100Z,1.33
2023-03-07T00:20:25.473Z,1.37
2023-03-07T00:22:51.751Z,1.43
2023-03-07T00:25:18.164Z,1.57
2023-03-07T00:27:44.457Z,1.37
2023-03-07T00:30:12.388Z,1.53
2023-03-07T00:32:38.792Z,1.40
2023-03-07T00:35:05.320Z,1.67
2023-03-07T00:37:31.661Z,1.40
2023-03-07T00:39:57.948Z,1.73
2023-03-07T00:42:24.373Z,1.03
2023-03-07T00:44:50.665Z,1.53
2023-03-07T00:47:17.031Z,1.33
2023-03-07T00:49:43.415Z,1.00
2023-03-07T00:52:09.713Z,1.60
2023-03-07T00:54:37.148Z,1.37
2023-03-07T00:57:03.615Z,1.13
2023-03-07T00:59:29.925Z,1.30
2023-03-07T01:01:56.252Z,1.53
2023-03-07T01:04:22.604Z,1.33
2023-03-07T01:06:49.060Z,1.50
2023-03-07T01:09:15.452Z,0.90
2023-03-07T01:11:41.774Z,1.03
2023-03-07T01:14:08.167Z,0.97
2023-03-07T01:16:35.679Z,1.20
2023-03-07T01:19:03.910Z,1.10
2023-03-07T01:21:31.377Z,1.67
2023-03-07T01:23:57.982Z,1.30
2023-03-07T01:26:28.691Z,0.87
2023-03-07T01:28:57.228Z,1.37
2023-03-07T01:31:24.238Z,1.07
2023-03-07T01:33:51.413Z,0.80
2023-03-07T01:36:19.615Z,1.07
2023-03-07T01:38:47.012Z,0.97
2023-03-07T01:41:13.839Z,1.03
2023-03-07T01:43:40.262Z,1.17
2023-03-07T01:46:18.648Z,1.30
2023-03-07T01:48:53.690Z,1.70
2023-03-07T01:51:20.515Z,1.10
2023-03-07T01:53:48.077Z,1.30
2023-03-07T01:56:14.422Z,1.23
2023-03-07T01:58:41.341Z,1.67
2023-03-07T02:01:08.845Z,1.37
2023-03-07T02:03:35.245Z,1.23
2023-03-07T02:06:04.017Z,1.30
2023-03-07T02:08:31.086Z,1.17
2023-03-07T02:10:57.383Z,1.10
2023-03-07T02:13:23.683Z,1.00
2023-03-07T02:15:51.098Z,0.97
2023-03-07T02:18:20.750Z,1.10
2023-03-07T02:20:50.057Z,0.70
2023-03-07T02:23:39.799Z,1.10
2023-03-07T02:26:06.118Z,0.83
2023-03-07T02:28:32.404Z,0.73
2023-03-07T02:30:59.892Z,0.60
2023-03-07T02:33:26.254Z,0.80
2023-03-07T02:35:54.904Z,0.90
2023-03-07T02:38:21.633Z,0.87
2023-03-07T02:40:48.460Z,0.90
2023-03-07T02:43:15.334Z,0.77
2023-03-07T02:45:41.642Z,0.73
2023-03-07T02:48:07.938Z,0.70
2023-03-07T02:50:35.430Z,0.60
2023-03-07T02:53:01.737Z,0.80
2023-03-07T02:55:28.085Z,0.60
2023-03-07T02:57:54.408Z,0.77
2023-03-07T03:00:20.924Z,1.00
2023-03-07T03:02:47.258Z,0.97
2023-03-07T03:05:13.742Z,0.77
2023-03-07T03:07:40.054Z,1.47
2023-03-07T03:10:06.754Z,1.43
2023-03-07T03:12:33.090Z,0.77
2023-03-07T03:14:59.420Z,0.97
2023-03-07T03:17:25.755Z,0.73
2023-03-07T03:19:52.090Z,1.13
2023-03-07T03:22:18.445Z,0.80
2023-03-07T03:24:44.737Z,0.70
2023-03-07T03:27:11.079Z,0.77
2023-03-07T03:29:37.398Z,0.50
2023-03-07T03:32:04.021Z,0.90
2023-03-07T03:34:30.394Z,0.80
2023-03-07T03:36:56.725Z,1.13
2023-03-07T03:39:23.164Z,0.60
2023-03-07T03:41:49.585Z,0.53
2023-03-07T03:44:16.130Z,0.67
2023-03-07T03:46:42.492Z,0.80
2023-03-07T03:49:11.505Z,0.60
2023-03-07T03:51:38.507Z,0.97
2023-03-07T03:54:04.941Z,0.80
2023-03-07T03:56:31.355Z,0.70
2023-03-07T03:58:58.071Z,0.70
2023-03-07T04:01:26.367Z,0.63
2023-03-07T04:03:53.827Z,1.20
2023-03-07T04:06:21.873Z,0.67
2023-03-07T04:08:48.255Z,0.87
2023-03-07T04:11:14.623Z,0.70
2023-03-07T04:13:41.302Z,0.80
2023-03-07T04:16:07.903Z,0.80
2023-03-07T04:18:34.825Z,0.50
2023-03-07T04:21:01.554Z,0.73
2023-03-07T04:23:28.196Z,0.60
2023-03-07T04:26:01.537Z,0.50
2023-03-07T04:28:29.192Z,0.40
2023-03-07T04:30:56.382Z,0.70
2023-03-07T04:33:22.928Z,0.50
2023-03-07T04:35:49.214Z,0.47
2023-03-07T04:38:15.928Z,0.60
2023-03-07T04:40:42.345Z,0.60
2023-03-07T04:43:08.706Z,0.60
2023-03-07T04:45:37.232Z,0.50
2023-03-07T04:48:04.053Z,1.03
2023-03-07T04:50:30.367Z,0.30
2023-03-07T04:52:56.704Z,0.50
2023-03-07T04:55:23.195Z,0.40
2023-03-07T04:57:51.267Z,0.43
2023-03-07T05:00:18.072Z,0.60
2023-03-07T05:02:44.795Z,0.83
2023-03-07T05:05:11.104Z,0.97
2023-03-07T05:07:37.440Z,0.87
2023-03-07T05:10:03.933Z,0.43
2023-03-07T05:12:30.328Z,0.80
2023-03-07T05:14:56.721Z,0.43
2023-03-07T05:17:22.999Z,0.37
2023-03-07T05:19:49.407Z,0.50
2023-03-07T05:22:15.736Z,0.60
2023-03-07T05:24:42.089Z,0.50
2023-03-07T05:27:11.007Z,0.50
2023-03-07T05:29:37.387Z,0.63
2023-03-07T05:32:03.969Z,0.40
2023-03-07T05:34:30.275Z,0.60
2023-03-07T05:36:58.307Z,0.80
2023-03-07T05:39:25.208Z,0.60
2023-03-07T05:41:51.588Z,0.30
2023-03-07T05:44:17.872Z,0.50
2023-03-07T05:46:44.278Z,0.33
2023-03-07T05:49:10.598Z,0.60
2023-03-07T05:51:37.005Z,0.40
2023-03-07T05:54:03.416Z,0.60
2023-03-07T05:56:29.711Z,0.60
2023-03-07T05:59:00.154Z,0.70
2023-03-07T06:01:26.472Z,0.73
2023-03-07T06:03:52.892Z,0.50
2023-03-07T06:06:19.197Z,0.80
2023-03-07T06:08:45.481Z,0.50
2023-03-07T06:11:11.867Z,0.47
2023-03-07T06:13:38.166Z,0.40
2023-03-07T06:16:04.638Z,0.57
2023-03-07T06:18:30.957Z,0.40
2023-03-07T06:21:01.719Z,0.40
2023-03-07T06:23:29.118Z,0.60
2023-03-07T06:25:55.428Z,0.93
2023-03-07T06:28:21.876Z,0.40
2023-03-07T06:30:48.462Z,0.70
2023-03-07T06:33:14.850Z,0.60
2023-03-07T06:35:42.170Z,0.40
2023-03-07T06:38:09.263Z,0.40
2023-03-07T06:40:35.609Z,0.73
2023-03-07T06:43:03.037Z,0.57
2023-03-07T06:45:29.515Z,0.47
2023-03-07T06:47:55.851Z,0.50
2023-03-07T06:50:34.514Z,0.50
2023-03-07T06:53:01.411Z,0.70
2023-03-07T06:55:27.841Z,0.57
2023-03-07T06:57:54.245Z,0.50
2023-03-07T07:00:22.602Z,0.50
2023-03-07T07:02:49.964Z,0.70
2023-03-07T07:05:16.566Z,0.40
2023-03-07T07:07:42.964Z,0.70
2023-03-07T07:10:09.641Z,0.60
2023-03-07T07:12:36.088Z,0.83
2023-03-07T07:15:04.916Z,0.53
2023-03-07T07:17:32.105Z,0.40
2023-03-07T07:19:58.390Z,0.70
2023-03-07T07:22:24.764Z,1.03
2023-03-07T07:24:51.100Z,0.60
2023-03-07T07:27:17.404Z,0.77
2023-03-07T07:29:43.685Z,0.83
2023-03-07T07:32:10.251Z,0.33
2023-03-07T07:34:36.681Z,0.47
2023-03-07T07:37:02.993Z,0.97
2023-03-07T07:39:29.630Z,0.70
2023-03-07T07:41:56.060Z,0.40
2023-03-07T07:44:22.362Z,0.33
2023-03-07T07:46:48.682Z,0.70
2023-03-07T07:49:15.752Z,0.50
2023-03-07T07:51:42.955Z,0.70
2023-03-07T07:54:09.518Z,0.50
2023-03-07T07:56:36.400Z,0.47
2023-03-07T07:59:02.886Z,0.57
2023-03-07T08:01:29.206Z,0.77
2023-03-07T08:03:55.545Z,0.70
2023-03-07T08:06:23.382Z,0.77
2023-03-07T08:08:50.025Z,0.60
2023-03-07T08:11:18.207Z,0.60
2023-03-07T08:13:44.906Z,0.40
2023-03-07T08:16:15.568Z,0.40
2023-03-07T08:18:44.182Z,0.47
2023-03-07T08:21:10.845Z,0.47
2023-03-07T08:23:37.286Z,0.87
2023-03-07T08:26:06.189Z,0.93
2023-03-07T08:28:32.738Z,0.70
2023-03-07T08:30:59.185Z,0.70
2023-03-07T08:33:25.512Z,0.30
2023-03-07T08:35:51.882Z,0.50
2023-03-07T08:38:18.294Z,0.50
2023-03-07T08:40:45.612Z,0.90
2023-03-07T08:43:11.999Z,0.47
2023-03-07T08:45:40.062Z,0.50
2023-03-07T08:48:06.672Z,0.70
2023-03-07T08:50:33.101Z,0.57
2023-03-07T08:52:59.410Z,0.50
2023-03-07T08:55:25.766Z,0.50
2023-03-07T08:57:52.070Z,0.80
2023-03-07T09:00:18.640Z,0.50
2023-03-07T09:02:45.026Z,0.77
2023-03-07T09:05:11.458Z,0.43
2023-03-07T09:07:37.767Z,0.40
2023-03-07T09:10:05.854Z,0.60
2023-03-07T09:12:33.025Z,0.60
2023-03-07T09:14:59.314Z,0.57
2023-03-07T09:17:25.644Z,0.73
2023-03-07T09:19:51.991Z,0.80
2023-03-07T09:22:18.387Z,0.50
2023-03-07T09:24:44.760Z,0.53
2023-03-07T09:27:11.522Z,0.70
2023-03-07T09:29:37.851Z,0.67
2023-03-07T09:32:04.328Z,0.53
2023-03-07T09:34:30.703Z,0.50
2023-03-07T09:36:57.116Z,0.50
2023-03-07T09:39:23.434Z,0.60
2023-03-07T09:41:52.620Z,0.43
2023-03-07T09:44:25.209Z,0.40
2023-03-07T09:47:11.950Z,0.87
2023-03-07T09:49:57.284Z,0.63
2023-03-07T09:52:25.738Z,0.93
2023-03-07T09:54:52.072Z,0.73
2023-03-07T09:57:24.262Z,0.40
2023-03-07T09:59:53.912Z,0.33
2023-03-07T10:02:20.288Z,0.60
2023-03-07T10:04:49.630Z,0.60
2023-03-07T10:07:17.008Z,0.70
2023-03-07T10:09:44.731Z,0.83
2023-03-07T10:12:29.478Z,0.60
2023-03-07T10:15:13.732Z,0.40
2023-03-07T10:17:55.407Z,0.50
2023-03-07T10:20:21.745Z,0.60
2023-03-07T10:22:48.055Z,0.50
2023-03-07T10:25:24.287Z,0.47
2023-03-07T10:27:52.065Z,0.47
2023-03-07T10:30:19.436Z,0.30
2023-03-07T10:32:47.438Z,0.50
2023-03-07T10:35:13.908Z,0.70
2023-03-07T10:37:43.946Z,0.57
2023-03-07T10:40:30.889Z,0.70
2023-03-07T10:42:58.180Z,0.53
2023-03-07T10:45:27.198Z,0.90
2023-03-07T10:47:53.612Z,0.50
2023-03-07T10:50:28.829Z,0.77
2023-03-07T10:53:00.118Z,0.63
2023-03-07T10:55:32.658Z,0.40
2023-03-07T10:58:14.358Z,0.63
2023-03-07T11:00:41.137Z,0.50
2023-03-07T11:03:22.602Z,0.47
2023-03-07T11:05:49.164Z,0.57
2023-03-07T11:08:26.263Z,0.60
2023-03-07T11:10:52.644Z,0.50
2023-03-07T11:13:20.920Z,0.33
2023-03-07T11:15:47.480Z,0.50
2023-03-07T11:18:37.933Z,0.40
2023-03-07T11:21:04.369Z,0.37
2023-03-07T11:23:31.649Z,0.60
2023-03-07T11:26:17.585Z,0.40
2023-03-07T11:28:43.939Z,0.67
2023-03-07T11:31:13.337Z,0.43
2023-03-07T11:33:59.864Z,0.87
2023-03-07T11:36:26.498Z,0.57
2023-03-07T11:38:57.220Z,0.60
2023-03-07T11:41:23.617Z,0.60
2023-03-07T11:44:11.754Z,0.60
2023-03-07T11:47:00.119Z,0.40
2023-03-07T11:49:29.412Z,0.40
2023-03-07T11:51:58.925Z,0.40
2023-03-07T11:54:44.052Z,0.60
2023-03-07T11:57:19.239Z,0.40
2023-03-07T11:59:45.503Z,0.70
2023-03-07T12:02:33.354Z,0.20
2023-03-07T12:05:11.775Z,0.40
2023-03-07T12:07:53.306Z,0.60
2023-03-07T12:10:19.579Z,0.40
2023-03-07T12:13:05.535Z,0.37
2023-03-07T12:15:35.845Z,0.87
2023-03-07T12:18:21.020Z,0.33
2023-03-07T12:20:59.627Z,0.70
2023-03-07T12:23:33.779Z,0.70
2023-03-07T12:26:03.516Z,0.53
2023-03-07T12:29:05.472Z,0.60
2023-03-07T12:31:37.840Z,0.63
2023-03-07T12:34:11.937Z,0.40
2023-03-07T12:36:38.391Z,0.70
2023-03-07T12:39:20.074Z,0.47
2023-03-07T12:41:50.141Z,0.60
2023-03-07T12:44:35.060Z,0.60
2023-03-07T12:47:06.505Z,0.40
2023-03-07T12:49:49.740Z,0.47
2023-03-07T12:52:23.007Z,0.30
2023-03-07T12:54:55.169Z,0.43
2023-03-07T12:57:26.639Z,0.60
2023-03-07T12:59:53.323Z,0.40
2023-03-07T13:02:29.717Z,0.40
2023-03-07T13:04:57.641Z,0.73
2023-03-07T13:07:25.214Z,0.60
2023-03-07T13:09:52.753Z,0.40
2023-03-07T13:12:25.281Z,0.80
2023-03-07T13:14:51.671Z,0.57
2023-03-07T13:17:30.305Z,0.50
2023-03-07T13:19:58.060Z,0.63
2023-03-07T13:22:24.364Z,0.90
2023-03-07T13:24:52.299Z,0.73
2023-03-07T13:27:20.400Z,0.73
2023-03-07T13:30:02.174Z,0.73
2023-03-07T13:32:47.434Z,0.57
2023-03-07T13:35:13.827Z,0.30
2023-03-07T13:37:50.629Z,1.20
2023-03-07T13:40:22.873Z,0.50
2023-03-07T13:42:49.689Z,0.63
2023-03-07T13:45:34.940Z,0.37
2023-03-07T13:48:01.356Z,0.70
2023-03-07T13:50:33.830Z,1.00
2023-03-07T13:53:02.220Z,0.40
2023-03-07T13:55:30.214Z,0.43
2023-03-07T13:57:57.956Z,1.00
2023-03-07T14:00:26.890Z,0.80
2023-03-07T14:02:53.944Z,0.60
2023-03-07T14:05:20.570Z,0.60
2023-03-07T14:07:51.579Z,0.53
2023-03-07T14:10:23.879Z,0.30
2023-03-07T14:12:55.243Z,0.67
2023-03-07T14:15:40.510Z,0.67
2023-03-07T14:18:10.970Z,0.93
2023-03-07T14:20:56.292Z,0.70
2023-03-07T14:23:42.371Z,0.57
2023-03-07T14:26:14.866Z,0.50
2023-03-07T14:28:48.818Z,0.70
2023-03-07T14:31:25.898Z,0.40
2023-03-07T14:33:52.372Z,0.30
2023-03-07T14:36:21.498Z,0.30
2023-03-07T14:38:48.678Z,0.77
2023-03-07T14:41:21.189Z,0.63
2023-03-07T14:43:53.597Z,0.13
2023-03-07T14:46:35.374Z,0.40
2023-03-07T14:49:16.862Z,0.23
2023-03-07T14:51:44.152Z,0.40
2023-03-07T14:54:31.653Z,0.40
2023-03-07T14:56:59.377Z,0.50
2023-03-07T14:59:29.271Z,0.30
2023-03-07T15:01:56.573Z,0.20
2023-03-07T15:04:28.521Z,0.17
2023-03-07T15:06:56.106Z,0.40
2023-03-07T15:09:22.854Z,0.27
2023-03-07T15:11:49.224Z,0.20
2023-03-07T15:14:20.510Z,0.40
2023-03-07T15:16:54.677Z,0.53
2023-03-07T15:19:41.308Z,0.60
2023-03-07T15:22:13.220Z,0.67
2023-03-07T15:24:43.072Z,0.53
2023-03-07T15:27:10.841Z,0.40
2023-03-07T15:29:37.396Z,0.30
2023-03-07T15:32:07.180Z,0.67
2023-03-07T15:34:35.173Z,0.40
2023-03-07T15:37:21.463Z,0.53
2023-03-07T15:39:55.214Z,0.50
2023-03-07T15:42:21.702Z,0.40
2023-03-07T15:44:55.643Z,0.47
2023-03-07T15:47:22.876Z,1.10
2023-03-07T15:49:50.572Z,0.50
2023-03-07T15:52:22.558Z,0.50
2023-03-07T15:54:50.763Z,0.30
2023-03-07T15:57:40.118Z,0.50
2023-03-07T16:00:14.592Z,0.40
2023-03-07T16:02:42.543Z,0.20
2023-03-07T16:05:24.038Z,0.50
2023-03-07T16:07:52.286Z,0.83
2023-03-07T16:10:19.264Z,1.00
2023-03-07T16:12:46.509Z,0.70
2023-03-07T16:15:14.042Z,0.40
2023-03-07T16:17:40.445Z,0.20
2023-03-07T16:20:14.016Z,0.40
2023-03-07T16:22:40.746Z,0.30
2023-03-07T16:25:08.163Z,0.40
2023-03-07T16:27:34.463Z,0.50
2023-03-07T16:30:00.765Z,0.30
2023-03-07T16:32:27.159Z,0.40
2023-03-07T16:34:53.529Z,0.30
2023-03-07T16:37:20.775Z,0.30
2023-03-07T16:39:47.082Z,0.30
2023-03-07T16:42:16.133Z,0.60
2023-03-07T16:44:42.462Z,0.10
2023-03-07T16:47:13.797Z,0.53
2023-03-07T16:49:41.145Z,0.40
2023-03-07T16:52:09.063Z,0.30
2023-03-07T16:54:35.365Z,0.40
2023-03-07T16:57:02.559Z,0.37
2023-03-07T16:59:34.603Z,0.20
2023-03-07T17:02:01.417Z,0.43
2023-03-07T17:04:27.766Z,0.40
2023-03-07T17:07:04.085Z,0.30
2023-03-07T17:09:31.003Z,0.30
2023-03-07T17:11:58.265Z,0.33
2023-03-07T17:14:24.539Z,0.30
2023-03-07T17:16:51.022Z,0.30
2023-03-07T17:19:28.053Z,0.20
2023-03-07T17:21:55.075Z,0.20
2023-03-07T17:24:22.543Z,0.30
2023-03-07T17:26:49.309Z,0.40
2023-03-07T17:29:41.733Z,0.37
2023-03-07T17:32:08.407Z,0.20
2023-03-07T17:34:35.611Z,0.20
2023-03-07T17:37:01.942Z,0.40
2023-03-07T17:39:29.719Z,0.23
2023-03-07T17:41:56.235Z,0.40
2023-03-07T17:44:22.567Z,0.30
2023-03-07T17:46:48.864Z,0.70
2023-03-07T17:49:15.153Z,0.70
2023-03-07T17:51:41.429Z,0.60
2023-03-07T17:54:10.548Z,0.67
2023-03-07T17:56:37.850Z,1.17
2023-03-07T17:59:05.132Z,1.50
2023-03-07T18:01:32.124Z,2.40
2023-03-07T18:03:58.891Z,1.27
2023-03-07T18:06:25.568Z,0.70
2023-03-07T18:08:52.134Z,0.43
2023-03-07T18:11:19.710Z,0.20
2023-03-07T18:13:46.872Z,0.30
2023-03-07T18:16:15.490Z,0.50
2023-03-07T18:18:57.804Z,0.23
2023-03-07T18:21:26.118Z,1.40
2023-03-07T18:23:52.647Z,1.17
2023-03-07T18:26:20.895Z,0.70
2023-03-07T18:28:48.687Z,0.70
2023-03-07T18:31:22.758Z,0.90
2023-03-07T18:33:52.821Z,0.80
2023-03-07T18:36:21.101Z,0.93
2023-03-07T18:38:47.701Z,0.80
2023-03-07T18:41:15.377Z,0.70
2023-03-07T18:43:42.015Z,0.83
2023-03-07T18:46:09.933Z,0.50
2023-03-07T18:48:36.424Z,0.83
2023-03-07T18:51:04.106Z,0.43
2023-03-07T18:53:31.196Z,0.43
2023-03-07T18:55:57.558Z,0.70
2023-03-07T18:58:23.982Z,0.80
2023-03-07T19:00:50.367Z,0.80
2023-03-07T19:03:16.851Z,1.17
2023-03-07T19:05:44.337Z,1.73
2023-03-07T19:08:10.694Z,1.47
2023-03-07T19:10:37.120Z,1.37
2023-03-07T19:13:14.931Z,1.10
2023-03-07T19:16:26.806Z,0.50
2023-03-07T19:18:56.643Z,0.50
2023-03-07T19:21:30.043Z,0.70
2023-03-07T19:24:11.989Z,0.50
2023-03-07T19:26:38.519Z,1.50
2023-03-07T19:29:05.550Z,0.97
2023-03-07T19:31:32.869Z,0.57
2023-03-07T19:34:01.529Z,0.53
2023-03-07T19:36:44.189Z,0.60
2023-03-07T19:39:15.414Z,0.60
2023-03-07T19:42:03.477Z,0.57
2023-03-07T19:44:30.517Z,0.57
2023-03-07T19:46:56.995Z,1.00
2023-03-07T19:49:26.461Z,0.93
2023-03-07T19:51:52.841Z,1.40
2023-03-07T19:54:20.492Z,0.97
2023-03-07T19:56:46.987Z,1.00
2023-03-07T19:59:13.480Z,1.67
2023-03-07T20:01:41.331Z,0.90
2023-03-07T20:04:09.038Z,0.83
2023-03-07T20:06:35.540Z,0.80
2023-03-07T20:09:01.809Z,0.47
2023-03-07T20:11:29.658Z,0.83
2023-03-07T20:13:56.817Z,0.80
2023-03-07T20:16:23.762Z,0.77
2023-03-07T20:18:50.936Z,0.90
2023-03-07T20:21:17.582Z,0.90
2023-03-07T20:23:44.861Z,1.03
2023-03-07T20:26:15.934Z,0.93
2023-03-07T20:28:42.413Z,1.20
2023-03-07T20:31:09.361Z,1.10
2023-03-07T20:33:36.471Z,1.20
2023-03-07T20:36:04.963Z,1.10
2023-03-07T20:38:32.039Z,1.20
2023-03-07T20:41:05.722Z,1.50
2023-03-07T20:43:32.555Z,0.80
2023-03-07T20:46:02.944Z,0.80
2023-03-07T20:48:29.368Z,0.90
2023-03-07T20:50:55.687Z,1.10
2023-03-07T20:53:22.058Z,1.17
2023-03-07T20:55:48.429Z,0.90
2023-03-07T20:58:14.844Z,0.73
2023-03-07T21:00:41.156Z,0.80
2023-03-07T21:03:09.906Z,0.90
2023-03-07T21:05:36.477Z,0.90
2023-03-07T21:08:02.796Z,1.17
2023-03-07T21:10:29.182Z,1.47
2023-03-07T21:12:55.586Z,0.90
2023-03-07T21:15:21.892Z,1.00
2023-03-07T21:17:48.381Z,1.10
2023-03-07T21:20:14.797Z,1.10
2023-03-07T21:22:41.249Z,1.20
2023-03-07T21:25:07.842Z,1.33
2023-03-07T21:27:34.133Z,1.03
2023-03-07T21:30:00.521Z,1.33
2023-03-07T21:32:26.896Z,0.80
2023-03-07T21:34:53.380Z,0.60
2023-03-07T21:37:20.549Z,0.70
2023-03-07T21:39:46.825Z,1.00
2023-03-07T21:42:13.225Z,1.00
2023-03-07T21:44:39.560Z,0.90
2023-03-07T21:47:06.188Z,1.03
2023-03-07T21:49:32.645Z,0.83
2023-03-07T21:51:58.924Z,1.00
2023-03-07T21:54:25.241Z,0.80
2023-03-07T21:56:51.531Z,1.20
2023-03-07T21:59:17.900Z,1.07
2023-03-07T22:01:44.210Z,0.87
2023-03-07T22:04:10.652Z,1.00
2023-03-07T22:06:36.971Z,0.83
2023-03-07T22:09:03.401Z,0.87
2023-03-07T22:11:29.821Z,0.70
2023-03-07T22:13:56.129Z,0.80
2023-03-07T22:16:22.600Z,0.37
2023-03-07T22:18:55.570Z,0.43
2023-03-07T22:21:25.165Z,0.50
2023-03-07T22:23:52.172Z,0.40
2023-03-07T22:26:18.497Z,0.30
2023-03-07T22:28:44.823Z,0.30
2023-03-07T22:31:11.921Z,0.50
2023-03-07T22:33:38.799Z,0.20
2023-03-07T22:36:06.247Z,0.60
2023-03-07T22:38:33.027Z,0.50
2023-03-07T22:41:02.271Z,0.30
2023-03-07T22:43:30.422Z,0.30
2023-03-07T22:45:56.878Z,0.50
2023-03-07T22:48:23.296Z,0.20
2023-03-07T22:50:49.689Z,0.70
2023-03-07T22:53:16.000Z,0.57
2023-03-07T22:55:42.928Z,0.30
2023-03-07T22:58:12.501Z,0.40
2023-03-07T23:00:43.383Z,0.60
2023-03-07T23:03:10.247Z,0.73
2023-03-07T23:05:36.782Z,0.47
2023-03-07T23:08:03.754Z,0.50
2023-03-07T23:10:30.767Z,0.50
2023-03-07T23:12:57.069Z,0.70
2023-03-07T23:15:25.670Z,0.33
2023-03-07T23:17:52.195Z,0.27
2023-03-07T23:20:19.727Z,0.57
2023-03-07T23:22:46.593Z,0.50
2023-03-07T23:25:14.921Z,0.70
2023-03-07T23:27:41.572Z,0.90
2023-03-07T23:30:08.465Z,0.93
2023-03-07T23:32:34.874Z,1.00
2023-03-07T23:35:01.851Z,0.53
2023-03-07T23:37:28.191Z,1.13
2023-03-07T23:39:54.506Z,0.73
2023-03-07T23:42:21.110Z,0.50
2023-03-07T23:44:50.398Z,0.73
2023-03-07T23:47:16.854Z,0.53
2023-03-07T23:49:43.250Z,0.80
2023-03-07T23:52:09.741Z,0.83
2023-03-07T23:54:36.071Z,0.60
2023-03-07T23:57:02.371Z,0.60
2023-03-07T23:59:29.739Z,0.67
